MT WASHINGTON (MTW)

Elevation: 920' · LOS ANGELES R basin · Operator: Los Angeles County Fire Dept

Query executed Tuesday at 10:42:58   clock

Provisional data, subject to change.
Select a sensor type for a plot of data.

Earlier

Date   /   Time   RAIN     TEMP     REL HUM     BAR PRE     FUEL MS     FUEL TP     WIND SP     WIND DR     PEAK WS     PEAK WD     SOLAR R     BAT VOL    
(PDT)INCHES   DEG F   %   INCHES   %   DEG F   MPH   DEG   MPH   DEG   W/M^2   VOLTS  
09/29/2014 11:00 5.11 81 36 -- 14 88 -- -- -- -- 726.00 13.4
09/29/2014 12:00 5.11 82 36 -- 13 95 -- -- -- -- 773.00 13.4
09/29/2014 13:00 5.11 82 36 -- 11 95 -- -- -- -- 750.00 13.4
09/29/2014 14:00 5.11 84 33 -- 10 98 -- -- -- -- 659.00 13.4
09/29/2014 15:00 5.11 83 34 -- 10 94 -- -- -- -- 382.00 13.4
09/29/2014 16:00 5.11 76 50 -- 9 77 -- -- -- -- 225.00 13.5
09/29/2014 17:00 5.11 71 57 -- 10 71 -- -- -- -- 66.00 12.6
09/29/2014 18:00 5.11 68 62 -- 10 67 -- -- -- -- 9.00 12.5
09/29/2014 19:00 5.11 67 68 -- 11 66 -- -- -- -- 0.00 12.5
09/29/2014 20:00 5.11 66 70 -- 12 65 -- -- -- -- 0.00 12.5
09/29/2014 21:00 5.11 65 71 -- 12 64 -- -- -- -- 0.00 12.5
09/29/2014 22:00 5.11 66 68 -- 13 64 -- -- -- -- 0.00 12.4
09/29/2014 23:00 5.11 67 70 -- 13 63 -- -- -- -- 0.00 12.4
09/30/2014 00:00 5.11 64 77 -- 14 63 -- -- -- -- 0.00 12.4
09/30/2014 01:00 5.11 64 76 -- 14 62 -- -- -- -- 0.00 12.4
09/30/2014 02:00 5.11 65 71 -- 14 62 -- -- -- -- 0.00 12.4
09/30/2014 03:00 5.11 66 69 -- 14 63 -- -- -- -- 0.00 12.3
09/30/2014 04:00 5.11 64 65 -- 14 62 -- -- -- -- 0.00 12.3
09/30/2014 05:00 5.11 64 62 -- 14 61 -- -- -- -- 0.00 12.3
09/30/2014 06:00 5.11 64 62 -- 14 61 -- -- -- -- 1.00 12.2
09/30/2014 07:00 5.11 68 56 -- 14 66 -- -- -- -- 65.00 13.0
09/30/2014 08:00 5.11 72 48 -- 13 70 -- -- -- -- 53.00 12.8
09/30/2014 09:00 5.11 79 37 -- 12 80 -- -- -- -- 481.00 13.4
09/30/2014 10:00 -- -- -- -- -- -- -- -- -- -- -- --

Later | Latest

Warning! This data is preliminary and subject to revision.

Download Data Now Download Data Now | Show MTW Map | 24 Hours MTW Data | Plot all MTW Sensors | Daily MTW Data | MTW Info